Time;durP1;ratioP1;P1;durP2;ratioP2;P2;SDS_P1;SDS_P2;PMS_P1;PMS_P2;Temp;Humidity;BMP_temperature;BMP_pressure;BME280_temperature;BME280_humidity;BME280_pressure;Samples;Min_cycle;Max_cycle;Signal;HPM_P1;HPM_P2
2022/03/31 04:05:09;;;;;;;44.60;35.40;;;6.60;99.90;;;;;;4975924;23;20241;-78
2022/03/31 04:07:41;;;;;;;46.27;35.70;;;6.50;99.90;;;;;;4878857;29;20244;-78
2022/03/31 04:10:10;;;;;;;46.07;35.43;;;6.50;99.90;;;;;;4888623;29;20332;-78
2022/03/31 04:12:39;;;;;;;47.47;36.83;;;6.50;99.90;;;;;;4888060;29;20209;-77
2022/03/31 04:15:08;;;;;;;47.37;37.97;;;6.50;99.90;;;;;;4888961;29;20675;-78
2022/03/31 04:17:37;;;;;;;45.23;35.73;;;6.50;99.90;;;;;;4888278;29;20620;-77
2022/03/31 04:20:08;;;;;;;44.67;35.10;;;6.50;99.90;;;;;;4886910;29;20235;-78
2022/03/31 04:22:37;;;;;;;44.03;35.27;;;6.50;99.90;;;;;;4888558;29;20238;-78
2022/03/31 04:25:07;;;;;;;47.67;36.60;;;6.50;99.90;;;;;;4887015;29;21021;-76
2022/03/31 04:27:36;;;;;;;49.57;36.93;;;6.50;99.90;;;;;;4889519;29;20209;-77
2022/03/31 04:30:06;;;;;;;46.90;37.57;;;6.50;99.90;;;;;;4889672;29;20242;-77
2022/03/31 04:32:34;;;;;;;53.23;38.57;;;6.40;99.90;;;;;;4889621;29;20213;-80
2022/03/31 04:35:03;;;;;;;50.10;39.13;;;6.50;99.90;;;;;;4895900;29;20229;-77
2022/03/31 04:37:35;;;;;;;50.30;38.77;;;6.50;99.90;;;;;;4897885;29;20646;-77
2022/03/31 04:40:04;;;;;;;47.33;37.30;;;6.40;99.90;;;;;;4889026;29;20564;-77
2022/03/31 04:42:32;;;;;;;46.60;36.63;;;6.40;99.90;;;;;;4886955;29;20313;-78
2022/03/31 04:45:02;;;;;;;49.23;37.60;;;6.40;99.90;;;;;;4888543;29;20228;-76
2022/03/31 04:47:32;;;;;;;47.47;36.67;;;6.30;99.90;;;;;;4888737;29;20215;-76
2022/03/31 04:50:00;;;;;;;48.73;37.00;;;6.40;99.90;;;;;;4888184;29;20659;-78
2022/03/31 04:52:28;;;;;;;56.40;39.50;;;6.40;99.90;;;;;;4885888;29;20240;-78
2022/03/31 04:54:58;;;;;;;50.77;38.53;;;6.40;99.90;;;;;;4879867;29;20210;-78
2022/03/31 04:57:26;;;;;;;48.87;37.33;;;6.30;99.90;;;;;;4880146;29;20224;-76
2022/03/31 04:59:54;;;;;;;48.37;36.57;;;6.30;99.90;;;;;;4879441;29;20262;-79
2022/03/31 05:02:22;;;;;;;51.17;37.17;;;6.40;99.90;;;;;;4879509;29;20640;-76
2022/03/31 05:04:50;;;;;;;50.10;37.47;;;6.40;99.90;;;;;;4892344;29;20253;-74
2022/03/31 05:07:18;;;;;;;55.93;39.57;;;6.40;99.90;;;;;;4895591;29;20273;-77
2022/03/31 05:09:48;;;;;;;55.93;39.53;;;6.40;99.90;;;;;;4889343;29;20214;-76
2022/03/31 05:12:20;;;;;;;50.80;37.60;;;6.30;99.90;;;;;;4893967;29;20198;-77
2022/03/31 05:14:48;;;;;;;53.03;38.90;;;6.40;99.90;;;;;;4898452;29;20207;-75
2022/03/31 05:17:16;;;;;;;51.83;39.23;;;6.40;99.90;;;;;;4898576;29;20265;-77
2022/03/31 05:19:44;;;;;;;55.50;40.20;;;6.40;99.90;;;;;;4897401;29;20214;-77
2022/03/31 05:22:13;;;;;;;54.17;39.93;;;6.40;99.90;;;;;;4892056;29;20214;-77
2022/03/31 05:24:41;;;;;;;54.27;39.47;;;6.40;99.90;;;;;;4879979;29;20215;-77
2022/03/31 05:27:08;;;;;;;54.27;40.43;;;6.40;99.90;;;;;;4879648;29;20297;-77
2022/03/31 05:29:38;;;;;;;51.77;37.77;;;6.40;99.90;;;;;;4881101;29;20224;-79
2022/03/31 05:32:07;;;;;;;54.60;40.53;;;6.40;99.90;;;;;;4876489;29;20254;-77
2022/03/31 05:34:35;;;;;;;52.83;38.80;;;6.50;99.90;;;;;;4859716;29;20766;-78
2022/03/31 05:37:05;;;;;;;59.10;43.07;;;6.50;99.90;;;;;;4866428;29;20241;-81
2022/03/31 05:39:34;;;;;;;55.30;40.60;;;6.50;99.90;;;;;;4877433;29;20249;-78
2022/03/31 05:42:02;;;;;;;52.37;38.50;;;6.50;99.90;;;;;;4878270;29;20214;-79
2022/03/31 05:44:30;;;;;;;47.57;36.53;;;6.50;99.90;;;;;;4877389;29;20210;-79
2022/03/31 05:47:02;;;;;;;51.73;38.40;;;6.50;99.90;;;;;;4877923;29;20600;-79
2022/03/31 05:49:30;;;;;;;51.60;38.33;;;6.50;99.90;;;;;;4877456;29;20716;-79
2022/03/31 05:51:58;;;;;;;50.03;37.93;;;6.60;99.90;;;;;;4879164;29;20307;-79
2022/03/31 05:54:28;;;;;;;54.50;39.70;;;6.70;99.90;;;;;;4880173;29;20641;-78
2022/03/31 05:56:56;;;;;;;52.70;40.40;;;6.70;99.90;;;;;;4882662;29;20338;-77
2022/03/31 05:59:28;;;;;;;53.60;39.07;;;6.70;99.90;;;;;;4865548;29;20261;-80
2022/03/31 06:01:56;;;;;;;56.90;40.13;;;6.80;99.90;;;;;;4876690;29;20634;-78
2022/03/31 06:04:25;;;;;;;54.77;40.83;;;6.80;99.90;;;;;;4877824;29;20222;-78
2022/03/31 06:06:53;;;;;;;53.37;40.50;;;6.90;99.90;;;;;;4878403;29;20298;-79
2022/03/31 06:09:21;;;;;;;52.20;39.57;;;6.80;99.90;;;;;;4877306;29;20629;-78
2022/03/31 06:11:50;;;;;;;54.03;40.67;;;6.90;99.90;;;;;;4877151;29;20244;-78
2022/03/31 06:14:18;;;;;;;49.03;39.17;;;6.80;99.90;;;;;;4881613;29;20210;-77
2022/03/31 06:16:46;;;;;;;48.47;35.03;;;6.80;99.90;;;;;;4885690;29;20297;-79
2022/03/31 06:19:14;;;;;;;45.77;36.23;;;6.80;99.90;;;;;;4886447;29;20293;-80
2022/03/31 06:21:44;;;;;;;45.77;35.43;;;6.70;99.90;;;;;;4880119;29;20214;-78
2022/03/31 06:24:12;;;;;;;46.17;35.67;;;6.80;99.90;;;;;;4877024;29;20223;-79
2022/03/31 06:26:40;;;;;;;48.57;36.17;;;6.80;99.90;;;;;;4878659;29;20230;-80
2022/03/31 06:29:08;;;;;;;52.43;39.17;;;6.80;99.90;;;;;;4879830;29;20695;-80
2022/03/31 06:31:38;;;;;;;49.13;37.10;;;6.80;99.90;;;;;;4880243;29;20245;-80
2022/03/31 06:34:06;;;;;;;46.57;36.53;;;6.80;99.90;;;;;;4881319;29;20253;-78
2022/03/31 06:36:35;;;;;;;48.63;36.63;;;6.80;99.90;;;;;;4880839;29;20214;-81
2022/03/31 06:39:05;;;;;;;47.00;36.47;;;6.80;99.90;;;;;;4877127;29;20313;-77
2022/03/31 06:41:33;;;;;;;48.40;36.50;;;6.80;99.90;;;;;;4862656;29;20305;-76
2022/03/31 06:44:01;;;;;;;55.03;38.90;;;6.90;99.90;;;;;;4873960;29;20309;-81
2022/03/31 06:46:29;;;;;;;50.07;37.87;;;6.90;99.90;;;;;;4880642;29;20317;-79
2022/03/31 06:48:58;;;;;;;48.60;37.33;;;6.90;99.90;;;;;;4880139;29;20669;-78
2022/03/31 06:51:29;;;;;;;44.67;34.73;;;7.00;99.90;;;;;;4878610;29;20238;-78
2022/03/31 06:53:57;;;;;;;47.67;35.93;;;7.00;99.90;;;;;;4876859;29;20202;-77
2022/03/31 06:56:32;;;;;;;47.47;37.20;;;7.00;99.90;;;;;;4875774;29;20213;-79
2022/03/31 06:59:02;;;;;;;51.33;38.20;;;6.90;99.90;;;;;;4876271;29;20302;-79
2022/03/31 07:01:30;;;;;;;51.63;36.43;;;7.00;99.90;;;;;;4876818;29;20210;-78
2022/03/31 07:03:58;;;;;;;49.57;36.70;;;7.00;99.90;;;;;;4876627;29;20232;-79
2022/03/31 07:06:26;;;;;;;49.53;37.90;;;7.10;99.90;;;;;;4876527;29;20261;-79
2022/03/31 07:08:54;;;;;;;48.27;36.87;;;7.10;99.90;;;;;;4877944;29;20936;-79
2022/03/31 07:11:26;;;;;;;47.10;36.27;;;7.20;99.90;;;;;;4880102;29;20218;-79
2022/03/31 07:13:55;;;;;;;48.17;36.57;;;7.20;99.90;;;;;;4880607;29;20630;-79
2022/03/31 07:16:23;;;;;;;48.97;36.03;;;7.30;99.90;;;;;;4880286;29;20239;-77
2022/03/31 07:18:52;;;;;;;48.47;35.00;;;7.40;99.90;;;;;;4880307;29;20684;-78
2022/03/31 07:21:20;;;;;;;46.63;35.30;;;7.40;99.90;;;;;;4880503;29;20716;-78
2022/03/31 07:23:48;;;;;;;50.70;36.70;;;7.50;99.90;;;;;;4880406;29;20229;-75
2022/03/31 07:26:17;;;;;;;45.70;34.33;;;7.40;99.90;;;;;;4881485;29;20234;-75
2022/03/31 07:28:45;;;;;;;51.07;37.17;;;7.60;99.90;;;;;;4884028;29;20639;-76
2022/03/31 07:31:14;;;;;;;47.00;36.70;;;7.60;99.90;;;;;;4882637;29;20218;-75
2022/03/31 07:33:42;;;;;;;47.27;36.97;;;7.70;99.90;;;;;;4881449;29;20273;-79
2022/03/31 07:36:12;;;;;;;46.97;35.53;;;7.80;99.90;;;;;;4880102;29;20281;-75
2022/03/31 07:38:40;;;;;;;47.57;36.07;;;7.80;99.90;;;;;;4880247;29;20218;-76
2022/03/31 07:41:09;;;;;;;43.72;36.80;;;7.80;99.90;;;;;;4879523;29;20466;-78
2022/03/31 07:43:37;;;;;;;40.13;32.90;;;7.90;99.90;;;;;;4881401;29;20218;-76
2022/03/31 07:46:05;;;;;;;42.47;33.60;;;7.90;99.90;;;;;;4881543;29;20229;-76
2022/03/31 07:48:35;;;;;;;47.83;35.93;;;7.90;99.90;;;;;;4879785;29;20733;-75
2022/03/31 07:51:03;;;;;;;48.83;35.97;;;7.90;99.90;;;;;;4880440;29;20253;-78
2022/03/31 07:53:32;;;;;;;46.00;35.03;;;7.90;99.90;;;;;;4881267;29;20298;-76
2022/03/31 07:56:01;;;;;;;50.85;37.55;;;7.80;99.90;;;;;;4882271;29;20444;-76
2022/03/31 07:58:29;;;;;;;47.28;37.53;;;7.70;99.90;;;;;;4889399;29;20860;-79
2022/03/31 08:00:59;;;;;;;49.03;39.43;;;7.70;99.90;;;;;;4883350;29;20449;-78
2022/03/31 08:03:27;;;;;;;43.47;33.87;;;7.90;99.90;;;;;;4887349;29;20496;-78
2022/03/31 08:05:59;;;;;;;42.03;33.13;;;7.80;99.90;;;;;;4897686;29;20678;-78
2022/03/31 08:08:28;;;;;;;41.87;32.00;;;7.80;99.90;;;;;;4872499;29;20779;-75
2022/03/31 08:10:56;;;;;;;40.67;31.47;;;7.90;99.90;;;;;;4876533;29;20217;-75
2022/03/31 08:13:29;;;;;;;39.57;31.33;;;7.90;99.90;;;;;;4878035;29;20249;-76
2022/03/31 08:15:58;;;;;;;41.77;30.43;;;8.00;99.90;;;;;;4886460;29;20249;-76
2022/03/31 08:18:28;;;;;;;38.88;31.42;;;8.00;99.90;;;;;;4889063;29;20983;-77
2022/03/31 08:20:59;;;;;;;36.28;29.77;;;7.90;99.90;;;;;;4887843;29;20453;-78
2022/03/31 08:23:27;;;;;;;37.93;27.17;;;8.00;99.90;;;;;;4883596;29;20250;-79
2022/03/31 08:25:56;;;;;;;34.50;26.90;;;8.10;99.90;;;;;;4878158;29;20218;-79
2022/03/31 08:28:25;;;;;;;33.00;25.97;;;8.20;99.90;;;;;;4878319;29;20301;-79
2022/03/31 08:30:53;;;;;;;33.53;26.57;;;8.40;99.90;;;;;;4880721;29;20565;-79
2022/03/31 08:33:21;;;;;;;35.87;25.60;;;8.40;99.90;;;;;;4887945;29;20302;-77
2022/03/31 08:35:50;;;;;;;35.27;26.57;;;8.40;99.90;;;;;;4891306;29;20209;-79
2022/03/31 08:38:20;;;;;;;34.07;25.03;;;8.50;99.90;;;;;;4880339;29;20699;-74
2022/03/31 08:40:49;;;;;;;31.40;24.47;;;8.60;99.90;;;;;;4877407;29;20245;-77
2022/03/31 08:43:17;;;;;;;33.23;25.40;;;8.60;99.90;;;;;;4877503;29;20323;-76
2022/03/31 08:45:51;;;;;;;31.03;25.63;;;8.50;99.90;;;;;;4877586;29;20265;-76
2022/03/31 08:48:20;;;;;;;31.97;24.90;;;8.60;99.90;;;;;;4877084;29;20229;-76
2022/03/31 08:50:48;;;;;;;29.93;23.60;;;8.60;99.90;;;;;;4878006;29;20211;-79
2022/03/31 08:53:16;;;;;;;32.50;23.50;;;8.60;99.90;;;;;;4878148;29;20266;-78
2022/03/31 08:55:46;;;;;;;30.70;25.07;;;8.70;99.90;;;;;;4879331;29;20299;-77
2022/03/31 08:58:14;;;;;;;28.83;23.13;;;8.70;99.90;;;;;;4879210;29;20245;-79
2022/03/31 09:00:44;;;;;;;34.13;23.77;;;8.90;99.90;;;;;;4878685;29;20708;-79
2022/03/31 09:03:12;;;;;;;30.10;22.90;;;9.00;99.90;;;;;;4881003;29;20214;-76
2022/03/31 09:05:42;;;;;;;29.40;22.87;;;9.10;99.90;;;;;;4879242;29;20562;-77
2022/03/31 09:08:12;;;;;;;27.70;22.00;;;9.10;99.90;;;;;;4878925;29;20222;-77
2022/03/31 09:10:45;;;;;;;28.77;22.13;;;9.10;99.90;;;;;;4878929;29;20309;-79
2022/03/31 09:13:23;;;;;;;28.07;22.40;;;9.30;99.90;;;;;;4879012;29;20238;-78
2022/03/31 09:15:53;;;;;;;28.73;21.77;;;9.30;99.90;;;;;;4878932;29;20222;-80
2022/03/31 09:18:23;;;;;;;29.87;22.30;;;9.30;99.90;;;;;;4878646;29;20198;-80
2022/03/31 09:20:54;;;;;;;31.47;23.23;;;9.50;99.90;;;;;;4878635;29;20684;-77
2022/03/31 09:23:23;;;;;;;30.47;23.37;;;9.50;99.90;;;;;;4878754;29;20309;-79
2022/03/31 09:25:53;;;;;;;27.67;22.37;;;9.40;99.90;;;;;;4878522;29;20731;-78
2022/03/31 09:28:24;;;;;;;31.23;22.10;;;9.50;99.90;;;;;;4878882;29;20282;-77
2022/03/31 09:30:53;;;;;;;27.53;21.80;;;9.50;99.90;;;;;;4878605;29;20227;-80
2022/03/31 09:33:36;;;;;;;28.37;21.60;;;9.60;99.90;;;;;;4878390;29;20293;-78
2022/03/31 09:36:07;;;;;;;25.13;21.40;;;9.60;99.90;;;;;;4878610;29;20220;-76
2022/03/31 09:38:37;;;;;;;25.63;19.77;;;10.00;99.90;;;;;;4878879;29;20206;-78
2022/03/31 09:41:17;;;;;;;25.30;19.60;;;10.50;99.90;;;;;;4878365;29;20207;-76
2022/03/31 09:43:47;;;;;;;25.73;20.23;;;10.70;99.90;;;;;;4878577;29;20214;-79
2022/03/31 09:46:24;;;;;;;28.93;20.80;;;10.90;99.90;;;;;;4878838;29;20245;-78
2022/03/31 09:48:59;;;;;;;23.77;19.27;;;11.00;99.90;;;;;;4878315;29;20214;-78
2022/03/31 09:51:27;;;;;;;23.77;19.07;;;11.00;99.90;;;;;;4878026;29;20811;-79
2022/03/31 09:53:56;;;;;;;23.20;18.40;;;11.00;99.90;;;;;;4878278;29;20253;-77
2022/03/31 09:59:21;;;;;;;22.37;15.63;;;11.00;99.90;;;;;;4873646;29;20210;-75
2022/03/31 10:01:53;;;;;;;19.47;15.40;;;10.90;99.90;;;;;;4881797;29;20286;-78
2022/03/31 10:04:22;;;;;;;19.20;15.10;;;11.00;99.90;;;;;;4863017;29;20230;-77
2022/03/31 10:06:56;;;;;;;19.03;15.30;;;10.70;99.90;;;;;;4862442;29;20306;-78
2022/03/31 10:09:25;;;;;;;20.33;15.37;;;10.60;99.90;;;;;;4862729;29;20195;-77
2022/03/31 10:11:59;;;;;;;20.80;16.67;;;10.50;99.90;;;;;;4865141;29;20219;-77
2022/03/31 10:14:36;;;;;;;21.47;16.27;;;10.30;99.90;;;;;;4881256;29;20292;-77
2022/03/31 10:17:09;;;;;;;21.13;16.30;;;10.30;99.90;;;;;;4881645;29;20246;-77
2022/03/31 10:19:39;;;;;;;20.90;16.60;;;10.20;99.90;;;;;;4881561;29;20278;-78
2022/03/31 10:24:41;;;;;;;21.23;16.77;;;10.30;99.90;;;;;;4881255;29;20255;-75
2022/03/31 10:25:05;;;;;;;20.67;16.33;;;10.10;99.90;;;;;;4880458;29;20222;-78
2022/03/31 10:27:35;;;;;;;22.80;18.50;;;10.10;99.90;;;;;;4881228;29;20317;-76
2022/03/31 10:30:16;;;;;;;23.20;18.77;;;10.00;99.90;;;;;;4880411;29;20676;-77
2022/03/31 10:32:52;;;;;;;23.23;18.90;;;9.80;99.90;;;;;;4881202;29;20233;-76
2022/03/31 10:35:23;;;;;;;25.53;19.07;;;9.80;99.90;;;;;;4880880;29;20699;-78
2022/03/31 10:37:52;;;;;;;28.00;19.50;;;9.70;99.90;;;;;;4881095;29;20296;-75
2022/03/31 10:40:33;;;;;;;24.17;18.80;;;9.60;99.90;;;;;;4880693;29;20256;-77
2022/03/31 10:43:03;;;;;;;23.53;18.87;;;9.70;99.90;;;;;;4881160;29;20234;-76
2022/03/31 10:45:38;;;;;;;25.97;18.53;;;9.70;99.90;;;;;;4881157;29;20218;-77
2022/03/31 10:48:15;;;;;;;23.27;19.33;;;9.60;99.90;;;;;;4862436;29;20230;-76
2022/03/31 10:50:44;;;;;;;23.57;18.70;;;9.60;99.90;;;;;;4862708;29;20457;-77
2022/03/31 10:53:12;;;;;;;23.97;19.67;;;9.60;99.90;;;;;;4880782;29;20353;-75
2022/03/31 10:55:42;;;;;;;21.70;17.33;;;9.70;99.90;;;;;;4880736;29;20214;-77
2022/03/31 10:58:25;;;;;;;25.43;17.60;;;9.50;99.90;;;;;;4880562;29;20285;-76
2022/03/31 11:00:55;;;;;;;21.50;17.27;;;9.60;99.90;;;;;;4880222;29;20202;-76
2022/03/31 11:03:24;;;;;;;22.37;17.93;;;9.60;99.90;;;;;;4880157;29;20692;-76
2022/03/31 11:05:53;;;;;;;22.00;16.90;;;9.60;99.90;;;;;;4880481;29;20604;-75
2022/03/31 11:08:21;;;;;;;23.43;17.37;;;9.70;99.90;;;;;;4881301;29;20262;-77
2022/03/31 11:10:52;;;;;;;20.73;16.50;;;9.90;99.90;;;;;;4881059;29;20305;-76
2022/03/31 11:13:30;;;;;;;22.43;18.70;;;9.90;99.90;;;;;;4880782;29;20198;-77
2022/03/31 11:16:02;;;;;;;23.93;18.13;;;10.00;99.90;;;;;;4880390;29;20261;-75
2022/03/31 11:18:31;;;;;;;24.07;17.87;;;10.10;99.90;;;;;;4879843;29;20756;-77
2022/03/31 11:21:01;;;;;;;21.73;18.67;;;9.90;99.90;;;;;;4878113;29;20297;-77
2022/03/31 11:23:32;;;;;;;22.57;18.70;;;9.90;99.90;;;;;;4880029;29;20253;-77
2022/03/31 11:26:06;;;;;;;23.60;18.20;;;9.90;99.90;;;;;;4880224;29;20207;-74
2022/03/31 11:28:35;;;;;;;23.07;18.57;;;9.80;99.90;;;;;;4879960;29;20233;-77
2022/03/31 11:31:14;;;;;;;22.53;18.30;;;9.80;99.90;;;;;;4880022;29;20297;-77
2022/03/31 11:33:43;;;;;;;22.53;18.47;;;9.90;99.90;;;;;;4890932;29;20888;-78
2022/03/31 11:36:11;;;;;;;22.27;17.47;;;10.00;99.90;;;;;;4887743;29;20238;-74
2022/03/31 11:38:40;;;;;;;21.90;18.03;;;10.00;99.90;;;;;;4881856;29;20579;-77
2022/03/31 11:41:08;;;;;;;22.53;17.83;;;9.90;99.90;;;;;;4879784;29;20309;-77
2022/03/31 11:43:36;;;;;;;23.60;18.53;;;9.90;99.90;;;;;;4880649;29;20222;-77
2022/03/31 11:46:04;;;;;;;23.30;18.57;;;9.90;99.90;;;;;;4880191;29;20299;-78
2022/03/31 11:48:35;;;;;;;22.87;18.13;;;9.80;99.90;;;;;;4881195;29;20244;-74
2022/03/31 11:51:06;;;;;;;22.93;19.27;;;9.90;99.90;;;;;;4879860;29;20282;-73
2022/03/31 11:53:39;;;;;;;22.27;18.03;;;9.80;99.90;;;;;;4879135;29;20637;-78
2022/03/31 11:56:11;;;;;;;23.03;18.90;;;10.00;99.90;;;;;;4861280;29;20279;-78
2022/03/31 11:58:46;;;;;;;23.30;19.07;;;10.10;99.90;;;;;;4860806;29;20195;-75
2022/03/31 12:01:15;;;;;;;25.77;19.03;;;10.10;99.90;;;;;;4867562;29;20297;-77
2022/03/31 12:03:45;;;;;;;22.53;18.47;;;10.20;99.90;;;;;;4877538;29;20214;-74
2022/03/31 12:06:16;;;;;;;20.63;18.07;;;10.20;99.90;;;;;;4893289;29;20263;-76
2022/03/31 12:08:46;;;;;;;22.70;18.07;;;10.10;99.90;;;;;;4898467;29;20272;-75
2022/03/31 12:11:17;;;;;;;22.20;18.83;;;10.10;99.90;;;;;;4881066;29;20214;-79
2022/03/31 12:13:50;;;;;;;22.83;19.50;;;10.00;99.90;;;;;;4879230;29;20215;-78
2022/03/31 12:16:20;;;;;;;28.83;22.63;;;10.00;99.90;;;;;;4879361;29;20241;-76
2022/03/31 12:18:55;;;;;;;34.70;26.10;;;9.80;99.90;;;;;;4879450;29;20598;-78
2022/03/31 12:21:25;;;;;;;25.80;20.57;;;9.90;99.90;;;;;;4881565;29;20234;-76
2022/03/31 12:23:54;;;;;;;24.30;20.43;;;9.90;99.90;;;;;;4878639;29;20276;-77
2022/03/31 12:26:51;;;;;;;21.90;19.37;;;9.80;99.90;;;;;;4878696;29;20226;-76
2022/03/31 12:29:21;;;;;;;24.00;19.43;;;9.80;99.90;;;;;;4878078;29;20294;-76
2022/03/31 12:32:00;;;;;;;23.60;19.97;;;9.80;99.90;;;;;;4879095;29;20653;-77
2022/03/31 12:34:30;;;;;;;23.83;19.97;;;9.70;99.90;;;;;;4873115;29;20331;-78
2022/03/31 12:36:58;;;;;;;26.93;21.47;;;9.70;99.90;;;;;;4879796;29;20198;-76
2022/03/31 12:39:27;;;;;;;27.10;21.37;;;9.50;99.90;;;;;;4880064;29;20238;-76
2022/03/31 12:41:58;;;;;;;24.40;19.90;;;9.50;99.90;;;;;;4880237;29;20755;-76
2022/03/31 12:44:32;;;;;;;25.80;21.23;;;9.50;99.90;;;;;;4880527;29;20253;-77
2022/03/31 12:47:01;;;;;;;22.83;20.20;;;9.60;99.90;;;;;;4879129;29;20214;-78
2022/03/31 12:49:35;;;;;;;25.07;21.70;;;9.70;99.90;;;;;;4879239;29;20301;-77
2022/03/31 12:52:12;;;;;;;25.60;21.73;;;9.60;99.90;;;;;;4879129;29;20213;-75
2022/03/31 12:54:42;;;;;;;26.40;22.10;;;9.70;99.90;;;;;;4885890;29;20206;-76
2022/03/31 12:57:17;;;;;;;26.03;22.77;;;9.80;99.90;;;;;;4882804;29;20314;-78
2022/03/31 12:59:59;;;;;;;25.83;22.07;;;9.70;99.90;;;;;;4884641;29;20205;-79
2022/03/31 13:02:41;;;;;;;28.77;21.97;;;9.90;99.90;;;;;;4883341;29;20214;-79
2022/03/31 13:05:10;;;;;;;26.10;22.13;;;9.70;99.90;;;;;;4881633;29;20245;-77
2022/03/31 13:07:39;;;;;;;27.07;21.73;;;9.80;99.90;;;;;;4879366;29;20214;-78
2022/03/31 13:10:08;;;;;;;26.13;21.23;;;9.80;99.90;;;;;;4881292;29;20213;-79
2022/03/31 13:12:37;;;;;;;27.87;22.13;;;9.80;99.90;;;;;;4878586;29;20209;-80
2022/03/31 13:15:10;;;;;;;26.83;21.70;;;9.90;99.90;;;;;;4878795;29;20289;-79
2022/03/31 13:17:42;;;;;;;23.30;20.20;;;9.80;99.90;;;;;;4879142;29;20199;-79
2022/03/31 13:20:20;;;;;;;25.77;22.03;;;9.70;99.90;;;;;;4874731;29;20210;-79
2022/03/31 13:22:51;;;;;;;26.30;22.07;;;9.70;99.90;;;;;;4861681;29;20733;-80
2022/03/31 13:25:19;;;;;;;26.87;22.03;;;9.80;99.90;;;;;;4878565;29;20680;-80
2022/03/31 13:27:48;;;;;;;26.90;22.60;;;9.80;99.90;;;;;;4875898;29;20299;-78
2022/03/31 13:30:16;;;;;;;25.90;21.90;;;9.70;99.90;;;;;;4877353;29;20222;-76
2022/03/31 13:32:45;;;;;;;27.80;21.93;;;9.80;99.90;;;;;;4877102;29;20221;-78
2022/03/31 13:35:20;;;;;;;26.10;22.10;;;9.80;99.90;;;;;;4879083;29;20259;-77
2022/03/31 13:37:49;;;;;;;25.37;21.60;;;9.90;99.90;;;;;;4880808;29;20245;-75
2022/03/31 13:40:18;;;;;;;26.43;22.17;;;9.90;99.90;;;;;;4881840;29;20358;-75
2022/03/31 13:42:46;;;;;;;27.20;23.27;;;9.60;99.90;;;;;;4882583;29;20261;-75
2022/03/31 13:45:17;;;;;;;26.07;23.27;;;9.60;99.90;;;;;;4882942;29;20736;-76
2022/03/31 13:47:49;;;;;;;27.27;22.97;;;9.60;99.90;;;;;;4881189;29;20731;-75
2022/03/31 13:50:20;;;;;;;28.83;23.17;;;9.60;99.90;;;;;;4880954;29;20611;-76
2022/03/31 13:53:43;;;;;;;26.10;21.53;;;9.50;99.90;;;;;;4882077;29;20229;-78
2022/03/31 13:55:37;;;;;;;29.47;22.57;;;9.60;99.90;;;;;;4880685;29;20241;-78
2022/03/31 14:01:11;;;;;;;26.40;22.83;;;9.70;99.90;;;;;;4895620;29;20205;-77
2022/03/31 14:03:42;;;;;;;28.13;22.33;;;9.70;99.90;;;;;;4894443;29;20657;-75
2022/03/31 14:06:13;;;;;;;27.57;23.57;;;9.70;99.90;;;;;;4898385;29;20197;-77
2022/03/31 14:08:48;;;;;;;26.93;23.73;;;9.60;99.90;;;;;;4881927;29;20237;-77
2022/03/31 14:11:17;;;;;;;26.17;23.33;;;9.60;99.90;;;;;;4863788;29;20239;-77
2022/03/31 14:13:45;;;;;;;25.53;22.77;;;9.60;99.90;;;;;;4884604;29;20301;-79
2022/03/31 14:16:13;;;;;;;25.07;22.27;;;9.60;99.90;;;;;;4890300;29;20253;-79
2022/03/31 14:18:44;;;;;;;27.67;23.13;;;9.60;99.90;;;;;;4899710;29;20816;-78
2022/03/31 14:21:13;;;;;;;25.13;22.43;;;9.60;99.90;;;;;;4900039;29;20675;-78
2022/03/31 14:23:44;;;;;;;26.13;23.27;;;9.70;99.90;;;;;;4900225;29;20213;-78
2022/03/31 14:26:12;;;;;;;27.10;23.80;;;9.70;99.90;;;;;;4896710;29;20595;-77
2022/03/31 14:28:42;;;;;;;28.37;22.93;;;9.80;99.90;;;;;;4888558;29;20225;-77
2022/03/31 14:31:15;;;;;;;27.43;24.30;;;9.70;99.90;;;;;;4881233;29;20254;-76
2022/03/31 14:34:05;;;;;;;26.07;22.97;;;9.90;99.90;;;;;;4880751;29;20234;-80
2022/03/31 14:36:35;;;;;;;27.47;23.37;;;9.80;99.90;;;;;;4884481;29;20246;-78
2022/03/31 14:39:05;;;;;;;27.23;24.13;;;9.70;99.90;;;;;;4881074;29;20729;-80
2022/03/31 14:41:35;;;;;;;27.17;23.13;;;9.70;99.90;;;;;;4881148;29;20560;-80
2022/03/31 14:44:04;;;;;;;27.37;23.70;;;9.60;99.90;;;;;;4881455;29;20226;-78
2022/03/31 14:46:36;;;;;;;28.60;24.30;;;9.50;99.90;;;;;;4879458;29;20218;-79
2022/03/31 14:49:07;;;;;;;29.87;23.17;;;9.50;99.90;;;;;;4880593;29;20294;-77
2022/03/31 14:51:37;;;;;;;28.03;24.27;;;9.40;99.90;;;;;;4880774;29;20353;-78
2022/03/31 14:54:06;;;;;;;28.53;24.40;;;9.30;99.90;;;;;;4880482;29;20229;-79
2022/03/31 14:56:34;;;;;;;28.53;25.37;;;9.40;99.90;;;;;;4880455;29;20214;-75
2022/03/31 14:59:02;;;;;;;28.77;25.00;;;9.40;99.90;;;;;;4880413;29;20688;-77
2022/03/31 15:01:31;;;;;;;29.80;25.50;;;9.40;99.90;;;;;;4881002;29;20281;-76
2022/03/31 15:03:59;;;;;;;29.87;24.17;;;9.40;99.90;;;;;;4880689;29;20464;-78
2022/03/31 15:06:30;;;;;;;27.47;24.03;;;9.40;99.90;;;;;;4879737;29;20237;-78
2022/03/31 15:09:00;;;;;;;30.73;25.93;;;9.40;99.90;;;;;;4880164;29;20202;-77
2022/03/31 15:14:34;;;;;;;35.80;27.30;;;9.30;99.90;;;;;;4879275;29;20238;-79
2022/03/31 15:17:02;;;;;;;33.97;26.53;;;9.20;99.90;;;;;;4879817;29;20258;-79
2022/03/31 15:19:30;;;;;;;32.50;27.13;;;9.10;99.90;;;;;;4879834;29;20223;-78
2022/03/31 15:21:58;;;;;;;35.77;27.87;;;9.10;99.90;;;;;;4879153;29;20733;-78
2022/03/31 15:24:29;;;;;;;35.40;28.67;;;8.90;99.90;;;;;;4879182;29;20218;-78
2022/03/31 15:26:57;;;;;;;39.57;28.90;;;8.90;99.90;;;;;;4878959;29;20218;-78
2022/03/31 15:29:28;;;;;;;33.03;28.30;;;8.80;99.90;;;;;;4879845;29;20214;-76
2022/03/31 15:31:56;;;;;;;33.43;27.43;;;8.90;99.90;;;;;;4879796;29;20309;-80
2022/03/31 15:34:24;;;;;;;38.37;28.77;;;8.70;99.90;;;;;;4880034;29;20297;-79
2022/03/31 15:36:53;;;;;;;35.30;27.37;;;8.80;99.90;;;;;;4879997;29;20245;-80
2022/03/31 15:39:24;;;;;;;38.80;29.43;;;8.80;99.90;;;;;;4880182;29;20218;-76
2022/03/31 15:42:13;;;;;;;36.23;29.33;;;8.70;99.90;;;;;;4880212;29;20234;-80
2022/03/31 15:44:41;;;;;;;36.03;26.80;;;8.70;99.90;;;;;;4879849;29;20635;-78
2022/03/31 15:47:11;;;;;;;28.63;24.57;;;8.70;99.90;;;;;;4880339;29;20266;-77
2022/03/31 15:49:42;;;;;;;27.63;21.97;;;8.60;99.90;;;;;;4879495;29;20198;-76
2022/03/31 15:52:10;;;;;;;25.50;21.57;;;8.70;99.90;;;;;;4879947;29;20634;-79
2022/03/31 15:54:38;;;;;;;23.73;20.03;;;8.70;99.90;;;;;;4879775;29;20733;-78
2022/03/31 15:57:07;;;;;;;25.30;20.83;;;8.70;99.90;;;;;;4879840;29;20242;-80
2022/03/31 15:59:38;;;;;;;27.47;21.33;;;8.70;99.90;;;;;;4879779;29;20302;-79
2022/03/31 16:02:08;;;;;;;26.33;21.73;;;8.60;99.90;;;;;;4879775;29;20274;-80
2022/03/31 16:04:38;;;;;;;25.67;21.93;;;8.50;99.90;;;;;;4879484;29;20588;-77
2022/03/31 16:07:07;;;;;;;27.17;21.77;;;8.50;99.90;;;;;;4880055;29;20309;-78
2022/03/31 16:09:36;;;;;;;25.67;21.50;;;8.50;99.90;;;;;;4879696;29;20218;-78
2022/03/31 16:12:05;;;;;;;26.27;21.60;;;8.50;99.90;;;;;;4879443;29;20696;-76
2022/03/31 16:14:33;;;;;;;31.00;23.27;;;8.50;99.90;;;;;;4879487;29;20257;-78
2022/03/31 16:17:02;;;;;;;26.30;21.67;;;8.50;99.90;;;;;;4880001;29;20260;-77
2022/03/31 16:19:31;;;;;;;27.37;22.30;;;8.50;99.90;;;;;;4878909;29;20218;-76
2022/03/31 16:21:59;;;;;;;28.07;22.60;;;8.40;99.90;;;;;;4882026;29;20262;-79
2022/03/31 16:24:28;;;;;;;26.00;21.50;;;8.40;99.90;;;;;;4884941;29;20245;-76
2022/03/31 16:26:56;;;;;;;24.47;20.87;;;8.40;99.90;;;;;;4879492;29;20574;-78
2022/03/31 16:29:24;;;;;;;26.60;21.10;;;8.30;99.90;;;;;;4877933;29;20215;-77
2022/03/31 16:31:52;;;;;;;25.27;21.37;;;8.40;99.90;;;;;;4892469;29;20316;-78
2022/03/31 16:34:24;;;;;;;25.03;20.30;;;8.30;99.90;;;;;;4897968;29;20225;-77
2022/03/31 16:36:53;;;;;;;26.13;22.83;;;8.30;99.90;;;;;;4886496;29;20210;-77
2022/03/31 16:39:21;;;;;;;26.27;22.33;;;8.30;99.90;;;;;;4878936;29;20245;-77
2022/03/31 16:41:51;;;;;;;27.03;22.87;;;8.30;99.90;;;;;;4878924;29;20301;-78
2022/03/31 16:44:25;;;;;;;27.47;23.03;;;8.30;99.90;;;;;;4879205;29;20227;-74
2022/03/31 16:46:55;;;;;;;28.77;23.90;;;8.30;99.90;;;;;;4878310;29;20681;-76
2022/03/31 16:49:25;;;;;;;26.97;23.27;;;8.30;99.90;;;;;;4877753;29;20724;-77
2022/03/31 16:51:53;;;;;;;27.40;23.03;;;8.20;99.90;;;;;;4878134;29;20720;-77
2022/03/31 16:54:22;;;;;;;25.30;21.43;;;8.10;99.90;;;;;;4878300;29;20214;-74
2022/03/31 16:56:51;;;;;;;24.90;20.73;;;8.10;99.90;;;;;;4878522;29;20246;-77
2022/03/31 16:59:21;;;;;;;24.73;20.63;;;8.00;99.90;;;;;;4878311;29;20266;-74
2022/03/31 17:01:49;;;;;;;27.87;21.87;;;7.90;99.90;;;;;;4878927;29;20206;-73
2022/03/31 17:04:17;;;;;;;26.13;20.97;;;7.90;99.90;;;;;;4879113;29;20253;-76